Coral Princess — ZCDF4 — position and weather

sailwx.info

Track history (hours):
 
Tides and Currents Weather Stations Pressure Air Temp Water Temp Dewpoint Dewpoint Depression Visibility Wind Speed Wind Dir Waves Ship Positions

Coral Princess

Operator: Princess Cruises

Last reported at 2019-Jul-22 05:00 UTC. Time now 2019-Jul-22 13:49 UTC.
Position N 57°00' W 134°12'.

Type: Passenger vessel. MMSI: 310376000.

Wind from 190 at 6 knots

Barometer 1016.9 mb
Air temperature 14.5 ° C
Visibility: greater than 10.8 NM
Dewpoint 11.9 ° C
Water temperature 11.0 ° C

Date/timePositionNaut miles runAvg speedWind from/ knotsBaromVisibWave heightAir tempDewpointWater temp
2019-Jul-22 05:00N 57°00' W 134°12'142 5.9 190 / 61016.910.8 14.511.911.0
2019-Jul-21 05:00N 59°18' W 135°18'73 3.3 200 / 281019.9 5.4 14.511.911.0
2019-Jul-20 07:00N 58°06' W 134°54'13 9.5 160 / 61019.4 5.4 13.0 9.414.0
2019-Jul-20 05:36N 58°10' W 135°18'112.0
2019-Jul-20 05:30N 58°10' W 135°20'611.9
2019-Jul-20 05:00N 58°13' W 135°30'612.0
2019-Jul-20 04:30N 58°16' W 135°40'611.1
2019-Jul-20 04:00N 58°19' W 135°49'4618.0
2019-Jul-20 04:00N 58°18' W 135°42'917.9 190 / 151019.410.8 12.010.211.0
2019-Jul-20 03:30N 58°21' W 135°57'611.3
2019-Jul-20 03:01N 58°27' W 136°00'611.5
2019-Jul-20 02:30N 58°32' W 136°04'612.3
2019-Jul-20 02:00N 58°39' W 136°03'713.4
2019-Jul-20 01:30N 58°44' W 136°12'914.8
2019-Jul-20 00:56N 58°48' W 136°26'13 2.6
2019-Jul-19 20:00N 58°54' W 136°48'1112.7 300 / 31017.5 5.4 10.510.5 9.0
2019-Jul-19 19:09N 58°49' W 136°29'617.4
2019-Jul-19 18:48N 58°46' W 136°20'517.6
2019-Jul-19 18:31N 58°42' W 136°13'917.1
2019-Jul-19 18:01N 58°35' W 136°03'5316.2
2019-Jul-19 18:00N 58°30' W 136°00'2 4.3 340 / 111016.5 10.010.0 9.0
2019-Jul-19 17:30N 58°28' W 136°02'5 9.5
2019-Jul-19 17:01N 58°24' W 135°58'612.6
2019-Jul-19 16:30N 58°20' W 136°06'815.9
2019-Jul-19 16:00N 58°12' W 136°12'13312.1 270 / 41016.5 0.0 13.013.0 8.0
2019-Jul-19 05:00N 59°18' W 139°54'6 6.0 150 / 51012.810.8 15.011.615.0
2019-Jul-19 04:00N 59°24' W 139°54'49 5.5 130 / 181012.210.8 15.013.314.0
2019-Jul-18 19:00N 59°30' W 141°30'18016.3 330 / 71007.810.8 16.010.814.0
2019-Jul-18 08:00N 60°42' W 147°00'   090 / 61001.510.8 16.013.513.0
2019-Jul-15 23:57N 58°19' W 136°13'716.6
2019-Jul-15 23:30N 58°22' W 136°00'510.2
2019-Jul-15 23:00N 58°27' W 136°01'815.4
2019-Jul-15 22:30N 58°35' W 136°03'714.2
2019-Jul-15 22:00N 58°42' W 136°06'1018.6
2019-Jul-15 21:28N 58°47' W 136°23'3 0.6
2019-Jul-15 16:01N 58°49' W 136°28'117.2
2019-Jul-15 15:57N 58°48' W 136°27'817.0
2019-Jul-15 15:29N 58°43' W 136°15'817.2
2019-Jul-15 15:01N 58°37' W 136°04'714.7
2019-Jul-15 14:30N 58°30' W 136°03'510.7
2019-Jul-15 14:00N 58°25' W 135°57'510.1
2019-Jul-15 13:30N 58°20' W 135°56'612.6
2019-Jul-15 13:00N 58°18' W 135°45'612.2
2019-Jul-15 12:30N 58°16' W 135°34'612.0
2019-Jul-15 12:00N 58°14' W 135°23'  
2019-Jul-12 11:00N 54°56' W 131°08'2312.5
2019-Jul-12 09:10N 54°34' W 131°18'212.4
2019-Jul-12 08:59N 54°32' W 131°16'612.4
2019-Jul-12 08:30N 54°27' W 131°12'612.2
2019-Jul-12 08:00N 54°21' W 131°07'613.0
2019-Jul-12 07:30N 54°15' W 131°03'612.9
2019-Jul-12 07:00N 54°08' W 131°02'612.9
2019-Jul-12 06:30N 54°02' W 131°00'712.7
2019-Jul-12 06:00N 53°56' W 131°01'612.8
2019-Jul-12 05:30N 53°49' W 131°02'713.0
2019-Jul-12 05:00N 53°43' W 131°02'  
Track history (hours):
 
Tides and Currents Weather Stations Pressure Air Temp Water Temp Dewpoint Dewpoint Depression Visibility Wind Speed Wind Dir Waves Ship Positions

Coral Princess

Operator: Princess Cruises

Last reported at 2019-Jul-22 05:00 UTC. Time now 2019-Jul-22 13:49 UTC.
Position N 57°00' W 134°12'.

Type: Passenger vessel. MMSI: 310376000.

Wind from 190 at 6 knots

Barometer 1016.9 mb
Air temperature 14.5 ° C
Visibility: greater than 10.8 NM
Dewpoint 11.9 ° C
Water temperature 11.0 ° C

Date/timePositionNaut miles runAvg speedWind from/ knotsBaromVisibWave heightAir tempDewpointWater temp
2019-Jul-22 05:00N 57°00' W 134°12'142 5.9 190 / 61016.910.8 14.511.911.0
2019-Jul-21 05:00N 59°18' W 135°18'73 3.3 200 / 281019.9 5.4 14.511.911.0
2019-Jul-20 07:00N 58°06' W 134°54'13 9.5 160 / 61019.4 5.4 13.0 9.414.0
2019-Jul-20 05:36N 58°10' W 135°18'112.0
2019-Jul-20 05:30N 58°10' W 135°20'611.9
2019-Jul-20 05:00N 58°13' W 135°30'612.0
2019-Jul-20 04:30N 58°16' W 135°40'611.1
2019-Jul-20 04:00N 58°19' W 135°49'4618.0
2019-Jul-20 04:00N 58°18' W 135°42'917.9 190 / 151019.410.8 12.010.211.0
2019-Jul-20 03:30N 58°21' W 135°57'611.3
2019-Jul-20 03:01N 58°27' W 136°00'611.5
2019-Jul-20 02:30N 58°32' W 136°04'612.3
2019-Jul-20 02:00N 58°39' W 136°03'713.4
2019-Jul-20 01:30N 58°44' W 136°12'914.8
2019-Jul-20 00:56N 58°48' W 136°26'13 2.6
2019-Jul-19 20:00N 58°54' W 136°48'1112.7 300 / 31017.5 5.4 10.510.5 9.0
2019-Jul-19 19:09N 58°49' W 136°29'617.4
2019-Jul-19 18:48N 58°46' W 136°20'517.6
2019-Jul-19 18:31N 58°42' W 136°13'917.1
2019-Jul-19 18:01N 58°35' W 136°03'5316.2
2019-Jul-19 18:00N 58°30' W 136°00'2 4.3 340 / 111016.5 10.010.0 9.0
2019-Jul-19 17:30N 58°28' W 136°02'5 9.5
2019-Jul-19 17:01N 58°24' W 135°58'612.6
2019-Jul-19 16:30N 58°20' W 136°06'815.9
2019-Jul-19 16:00N 58°12' W 136°12'13312.1 270 / 41016.5 0.0 13.013.0 8.0
2019-Jul-19 05:00N 59°18' W 139°54'6 6.0 150 / 51012.810.8 15.011.615.0
2019-Jul-19 04:00N 59°24' W 139°54'49 5.5 130 / 181012.210.8 15.013.314.0
2019-Jul-18 19:00N 59°30' W 141°30'18016.3 330 / 71007.810.8 16.010.814.0
2019-Jul-18 08:00N 60°42' W 147°00'   090 / 61001.510.8 16.013.513.0
2019-Jul-15 23:57N 58°19' W 136°13'716.6
2019-Jul-15 23:30N 58°22' W 136°00'510.2
2019-Jul-15 23:00N 58°27' W 136°01'815.4
2019-Jul-15 22:30N 58°35' W 136°03'714.2
2019-Jul-15 22:00N 58°42' W 136°06'1018.6
2019-Jul-15 21:28N 58°47' W 136°23'3 0.6
2019-Jul-15 16:01N 58°49' W 136°28'117.2
2019-Jul-15 15:57N 58°48' W 136°27'817.0
2019-Jul-15 15:29N 58°43' W 136°15'817.2
2019-Jul-15 15:01N 58°37' W 136°04'714.7
2019-Jul-15 14:30N 58°30' W 136°03'510.7
2019-Jul-15 14:00N 58°25' W 135°57'510.1
2019-Jul-15 13:30N 58°20' W 135°56'612.6
2019-Jul-15 13:00N 58°18' W 135°45'612.2
2019-Jul-15 12:30N 58°16' W 135°34'612.0
2019-Jul-15 12:00N 58°14' W 135°23'  
2019-Jul-12 11:00N 54°56' W 131°08'2312.5
2019-Jul-12 09:10N 54°34' W 131°18'212.4
2019-Jul-12 08:59N 54°32' W 131°16'612.4
2019-Jul-12 08:30N 54°27' W 131°12'612.2
2019-Jul-12 08:00N 54°21' W 131°07'613.0
2019-Jul-12 07:30N 54°15' W 131°03'612.9
2019-Jul-12 07:00N 54°08' W 131°02'612.9
2019-Jul-12 06:30N 54°02' W 131°00'712.7
2019-Jul-12 06:00N 53°56' W 131°01'612.8
2019-Jul-12 05:30N 53°49' W 131°02'713.0
2019-Jul-12 05:00N 53°43' W 131°02'  

Dump ship's entire track history